Time;durP1;ratioP1;P1;durP2;ratioP2;P2;SDS_P1;SDS_P2;PMS_P1;PMS_P2;Temp;Humidity;BMP_temperature;BMP_pressure;BME280_temperature;BME280_humidity;BME280_pressure;Samples;Min_cycle;Max_cycle;Signal;HPM_P1;HPM_P2
2022/11/03 00:00:09;;;;;;;45.22;26.02;;;;;;;;;;2115426;28;20044;-43
2022/11/03 00:01:13;;;;;;;49.70;26.40;;;;;;;;;;2115287;28;20039;-43
2022/11/03 00:02:14;;;;;;;46.13;26.08;;;;;;;;;;2115478;28;20132;-42
2022/11/03 00:03:15;;;;;;;46.63;25.25;;;;;;;;;;2115426;28;20052;-43
2022/11/03 00:04:17;;;;;;;48.75;26.55;;;;;;;;;;2115453;28;20046;-43
2022/11/03 00:06:54;;;;;;;40.92;25.55;;;;;;;;;;2089407;28;20045;-43
2022/11/03 00:07:55;;;;;;;43.38;25.23;;;;;;;;;;2089238;28;20053;-43
2022/11/03 00:08:57;;;;;;;44.83;26.90;;;;;;;;;;2089315;28;20045;-43
2022/11/03 00:09:57;;;;;;;;;;;;;;;;;;2089672;28;20537;-43
2022/11/03 00:11:02;;;;;;;46.45;25.60;;;;;;;;;;2089177;28;19953;-43
2022/11/03 00:12:04;;;;;;;49.60;26.30;;;;;;;;;;2089262;28;20402;-43
2022/11/03 00:13:04;;;;;;;47.15;26.00;;;;;;;;;;2113844;28;20040;-43
2022/11/03 00:14:08;;;;;;;45.58;25.80;;;;;;;;;;2115657;28;20058;-46
2022/11/03 00:15:09;;;;;;;44.25;25.75;;;;;;;;;;2115270;28;20043;-45
2022/11/03 00:16:11;;;;;;;47.03;25.60;;;;;;;;;;2115294;28;20160;-46
2022/11/03 00:17:11;;;;;;;47.63;25.27;;;;;;;;;;2115310;28;20404;-47
2022/11/03 00:18:13;;;;;;;42.90;23.58;;;;;;;;;;2115549;28;20052;-45
2022/11/03 00:19:15;;;;;;;42.72;22.60;;;;;;;;;;2115279;28;20048;-44
2022/11/03 00:20:16;;;;;;;40.45;22.30;;;;;;;;;;2115266;28;20040;-45
2022/11/03 00:21:18;;;;;;;42.07;22.77;;;;;;;;;;2115205;28;20065;-45
2022/11/03 00:22:19;;;;;;;41.75;23.40;;;;;;;;;;2115389;28;20100;-45
2022/11/03 00:23:20;;;;;;;41.63;22.90;;;;;;;;;;2115345;28;20043;-44
2022/11/03 00:24:21;;;;;;;37.55;22.88;;;;;;;;;;2115346;28;20040;-46
2022/11/03 00:25:22;;;;;;;36.53;21.88;;;;;;;;;;2115382;28;20040;-44
2022/11/03 00:26:24;;;;;;;40.97;22.15;;;;;;;;;;2115196;28;20377;-45
2022/11/03 00:27:25;;;;;;;40.35;23.63;;;;;;;;;;2115395;28;20515;-44
2022/11/03 00:28:26;;;;;;;39.92;21.10;;;;;;;;;;2115276;28;20120;-45
2022/11/03 00:29:27;;;;;;;43.28;22.83;;;;;;;;;;2115305;28;20047;-44
2022/11/03 00:30:28;;;;;;;38.85;22.05;;;;;;;;;;2115214;28;20055;-45
2022/11/03 00:31:30;;;;;;;35.50;19.45;;;;;;;;;;2115070;28;20051;-45
2022/11/03 00:32:31;;;;;;;;;;;;;;;;;;2115746;28;20050;-45
2022/11/03 00:33:32;;;;;;;32.58;20.40;;;;;;;;;;2115306;28;20292;-46
2022/11/03 00:34:33;;;;;;;45.15;23.08;;;;;;;;;;2115352;28;20058;-44
2022/11/03 00:35:34;;;;;;;37.05;21.65;;;;;;;;;;2115217;28;20064;-45
2022/11/03 00:36:37;;;;;;;35.57;21.47;;;;;;;;;;2115058;28;20055;-45
2022/11/03 00:37:38;;;;;;;37.28;20.33;;;;;;;;;;2115139;28;20040;-45
2022/11/03 00:38:39;;;;;;;34.67;21.53;;;;;;;;;;2115192;28;20134;-44
2022/11/03 00:39:40;;;;;;;44.08;23.02;;;;;;;;;;2115101;28;20480;-45
2022/11/03 00:40:41;;;;;;;36.13;21.83;;;;;;;;;;2115099;28;20056;-45
2022/11/03 00:41:42;;;;;;;36.80;21.88;;;;;;;;;;2115175;28;20055;-44
2022/11/03 00:42:43;;;;;;;42.20;22.73;;;;;;;;;;2115315;28;20055;-44
2022/11/03 00:43:44;;;;;;;38.58;23.58;;;;;;;;;;2115114;28;20396;-45
2022/11/03 00:44:45;;;;;;;38.37;23.03;;;;;;;;;;2115166;28;20050;-45
2022/11/03 00:45:45;;;;;;;39.67;22.02;;;;;;;;;;2114938;28;20047;-44
2022/11/03 00:46:47;;;;;;;41.10;22.07;;;;;;;;;;2115674;28;20051;-45
2022/11/03 00:49:04;;;;;;;42.80;23.55;;;;;;;;;;2122776;28;20088;-44
2022/11/03 00:50:05;;;;;;;43.85;22.13;;;;;;;;;;2123509;28;20129;-45
2022/11/03 00:51:08;;;;;;;43.25;22.55;;;;;;;;;;2123482;27;20054;-45
2022/11/03 00:52:09;;;;;;;37.25;21.50;;;;;;;;;;2123749;28;20050;-45
2022/11/03 00:53:10;;;;;;;37.97;21.60;;;;;;;;;;2123572;28;20043;-46
2022/11/03 00:54:11;;;;;;;42.67;22.25;;;;;;;;;;2123455;28;20055;-46
2022/11/03 00:55:12;;;;;;;42.28;22.42;;;;;;;;;;2123550;28;20050;-47
2022/11/03 00:56:14;;;;;;;37.17;22.60;;;;;;;;;;2123505;27;20047;-45
2022/11/03 00:57:15;;;;;;;42.92;22.73;;;;;;;;;;2123641;28;20281;-44
2022/11/03 00:58:16;;;;;;;41.45;24.55;;;;;;;;;;2123838;28;20039;-44
2022/11/03 00:59:17;;;;;;;37.77;21.90;;;;;;;;;;2123682;28;20402;-45
2022/11/03 01:00:18;;;;;;;42.00;23.40;;;;;;;;;;2123470;28;20046;-46
2022/11/03 01:01:20;;;;;;;45.00;24.63;;;;;;;;;;2123549;27;20046;-45
2022/11/03 01:02:22;;;;;;;40.13;22.95;;;;;;;;;;2123401;28;20736;-44
2022/11/03 01:03:23;;;;;;;39.57;21.37;;;;;;;;;;2123541;28;20126;-44
2022/11/03 01:07:03;;;;;;;43.40;23.40;;;;;;;;;;2114954;28;20047;-45
2022/11/03 01:08:06;;;;;;;37.47;22.65;;;;;;;;;;2115150;28;20051;-45
2022/11/03 01:09:07;;;;;;;40.22;23.77;;;;;;;;;;2114918;28;20476;-45
2022/11/03 01:10:08;;;;;;;50.03;25.77;;;;;;;;;;2114945;28;20059;-45
2022/11/03 01:12:29;;;;;;;42.85;23.45;;;;;;;;;;2115088;28;20050;-45
2022/11/03 01:13:30;;;;;;;41.50;23.30;;;;;;;;;;2115000;28;20050;-45
2022/11/03 01:14:32;;;;;;;47.92;24.98;;;;;;;;;;2115070;28;20047;-45
2022/11/03 01:15:33;;;;;;;46.20;24.27;;;;;;;;;;2114830;28;20047;-45
2022/11/03 01:16:34;;;;;;;41.45;23.73;;;;;;;;;;2114806;28;20412;-45
2022/11/03 01:17:35;;;;;;;40.63;23.57;;;;;;;;;;2115002;28;20051;-44
2022/11/03 01:18:36;;;;;;;41.63;22.75;;;;;;;;;;2115034;28;20048;-44
2022/11/03 01:19:37;;;;;;;44.20;23.80;;;;;;;;;;2114891;28;20054;-45
2022/11/03 01:20:38;;;;;;;44.88;23.63;;;;;;;;;;2114793;28;20403;-45
2022/11/03 01:21:39;;;;;;;44.30;25.30;;;;;;;;;;2114960;28;20047;-45
2022/11/03 01:22:40;;;;;;;43.90;25.15;;;;;;;;;;2114911;28;20047;-45
2022/11/03 01:23:42;;;;;;;44.13;26.43;;;;;;;;;;2115066;28;20058;-46
2022/11/03 01:24:44;;;;;;;51.50;26.20;;;;;;;;;;2114962;28;20050;-45
2022/11/03 01:25:44;;;;;;;44.60;25.73;;;;;;;;;;2114900;28;20084;-46
2022/11/03 01:26:46;;;;;;;45.23;24.67;;;;;;;;;;2114893;28;20484;-45
2022/11/03 01:27:47;;;;;;;44.83;26.02;;;;;;;;;;2114845;28;20049;-44
2022/11/03 01:28:48;;;;;;;43.93;26.43;;;;;;;;;;2114915;28;20048;-45
2022/11/03 01:29:49;;;;;;;42.78;25.00;;;;;;;;;;2114917;28;20040;-45
2022/11/03 01:30:50;;;;;;;42.92;25.00;;;;;;;;;;2114941;28;20054;-44
2022/11/03 01:31:51;;;;;;;42.33;23.73;;;;;;;;;;2114900;28;20051;-44
2022/11/03 01:32:52;;;;;;;41.87;24.17;;;;;;;;;;2114853;28;20132;-44
2022/11/03 01:33:53;;;;;;;46.60;25.30;;;;;;;;;;2114737;28;20442;-44
2022/11/03 01:34:55;;;;;;;42.13;22.25;;;;;;;;;;2114924;28;20051;-44
2022/11/03 01:35:55;;;;;;;42.22;23.15;;;;;;;;;;2114705;28;20043;-45
2022/11/03 01:36:57;;;;;;;39.88;23.17;;;;;;;;;;2114817;28;20052;-44
2022/11/03 01:37:57;;;;;;;35.65;21.30;;;;;;;;;;2114800;28;20073;-45
2022/11/03 01:38:59;;;;;;;43.00;24.60;;;;;;;;;;2114866;28;20073;-44
2022/11/03 01:40:00;;;;;;;43.60;23.15;;;;;;;;;;2114851;28;20048;-45
2022/11/03 01:41:03;;;;;;;37.83;21.77;;;;;;;;;;2114662;28;20079;-44
2022/11/03 01:42:04;;;;;;;42.03;22.17;;;;;;;;;;2114826;28;20047;-44
2022/11/03 01:43:14;;;;;;;40.15;23.38;;;;;;;;;;2115718;28;20047;-44
2022/11/03 01:44:36;;;;;;;45.13;22.95;;;;;;;;;;2123186;27;20408;-45
2022/11/03 01:45:37;;;;;;;39.92;22.75;;;;;;;;;;2114916;27;20055;-45
2022/11/03 01:46:41;;;;;;;43.87;24.07;;;;;;;;;;2123558;28;20162;-45
2022/11/03 01:47:42;;;;;;;41.33;23.45;;;;;;;;;;2123193;28;20069;-44
2022/11/03 01:48:45;;;;;;;38.03;21.70;;;;;;;;;;2123307;28;20047;-44
2022/11/03 01:49:49;;;;;;;39.25;22.10;;;;;;;;;;2123103;28;20506;-44
2022/11/03 01:50:51;;;;;;;42.05;23.60;;;;;;;;;;2123096;27;20484;-44
2022/11/03 01:51:54;;;;;;;40.85;23.35;;;;;;;;;;2123135;28;20444;-44
2022/11/03 01:52:57;;;;;;;40.63;23.85;;;;;;;;;;2123286;28;20043;-45
2022/11/03 01:53:59;;;;;;;44.05;23.35;;;;;;;;;;2123115;28;20069;-44
2022/11/03 01:55:03;;;;;;;43.88;22.98;;;;;;;;;;2123161;28;20384;-44
2022/11/03 01:56:04;;;;;;;45.20;24.38;;;;;;;;;;2123108;27;20055;-44
2022/11/03 01:57:09;;;;;;;46.33;24.33;;;;;;;;;;2123073;28;20051;-44
2022/11/03 01:58:12;;;;;;;44.83;23.33;;;;;;;;;;2123141;28;20051;-45
2022/11/03 01:59:15;;;;;;;47.45;25.20;;;;;;;;;;2123359;28;20058;-45
2022/11/03 02:00:16;;;;;;;47.58;23.40;;;;;;;;;;2123056;28;20096;-44
2022/11/03 02:01:17;;;;;;;43.73;23.17;;;;;;;;;;2123154;27;20047;-44
2022/11/03 02:02:18;;;;;;;41.45;22.23;;;;;;;;;;2123219;28;20043;-44
2022/11/03 02:03:21;;;;;;;43.67;24.13;;;;;;;;;;2123101;28;20050;-45
2022/11/03 02:04:25;;;;;;;46.80;24.08;;;;;;;;;;2123297;28;20283;-45
2022/11/03 02:05:27;;;;;;;47.50;25.45;;;;;;;;;;2122112;27;20047;-45
2022/11/03 02:06:28;;;;;;;41.90;23.00;;;;;;;;;;2114586;28;20047;-44
2022/11/03 02:07:33;;;;;;;46.97;26.38;;;;;;;;;;2114563;28;20036;-44
2022/11/03 02:08:37;;;;;;;40.22;24.75;;;;;;;;;;2114686;28;20051;-44
2022/11/03 02:09:38;;;;;;;45.03;25.30;;;;;;;;;;2114551;28;20047;-44
2022/11/03 02:10:39;;;;;;;51.30;27.88;;;;;;;;;;2114500;28;20048;-44
2022/11/03 02:13:02;;;;;;;51.45;27.90;;;;;;;;;;2114739;28;20051;-45
2022/11/03 02:14:03;;;;;;;47.25;26.05;;;;;;;;;;2114655;28;20075;-44
2022/11/03 02:15:05;;;;;;;51.57;26.90;;;;;;;;;;2114733;28;20066;-44
2022/11/03 02:16:07;;;;;;;46.20;26.42;;;;;;;;;;2114346;28;20051;-45
2022/11/03 02:17:10;;;;;;;51.03;28.65;;;;;;;;;;2114880;28;20054;-43
2022/11/03 02:18:11;;;;;;;53.97;28.95;;;;;;;;;;2114610;28;20193;-43
2022/11/03 02:19:18;;;;;;;58.28;30.90;;;;;;;;;;2114608;28;20492;-43
2022/11/03 02:20:21;;;;;;;53.20;27.75;;;;;;;;;;2114513;28;20085;-43
2022/11/03 02:21:25;;;;;;;52.03;28.38;;;;;;;;;;2114542;28;20043;-43
2022/11/03 02:22:33;;;;;;;52.00;27.77;;;;;;;;;;2114554;28;20039;-42
2022/11/03 02:23:38;;;;;;;50.35;26.50;;;;;;;;;;2114480;28;20043;-43
2022/11/03 02:24:45;;;;;;;51.38;27.67;;;;;;;;;;2114603;28;20074;-42
2022/11/03 02:25:56;;;;;;;53.58;26.50;;;;;;;;;;2114561;28;20086;-43
2022/11/03 02:26:57;;;;;;;45.92;25.42;;;;;;;;;;2114547;28;20096;-42
2022/11/03 02:27:58;;;;;;;45.77;25.67;;;;;;;;;;2114406;28;20052;-42
2022/11/03 02:28:59;;;;;;;53.80;25.38;;;;;;;;;;2114587;28;20048;-43
2022/11/03 02:30:01;;;;;;;49.17;26.40;;;;;;;;;;2114529;28;20050;-43
2022/11/03 02:31:07;;;;;;;50.63;26.38;;;;;;;;;;2114438;28;20101;-42
2022/11/03 02:32:11;;;;;;;50.20;25.73;;;;;;;;;;2114454;28;20055;-42
2022/11/03 02:33:18;;;;;;;48.63;25.17;;;;;;;;;;2114563;28;20047;-42
2022/11/03 02:34:22;;;;;;;54.42;26.05;;;;;;;;;;2114385;28;20040;-42
2022/11/03 02:35:28;;;;;;;50.35;26.00;;;;;;;;;;2114415;28;20047;-42
2022/11/03 02:36:30;;;;;;;51.40;25.17;;;;;;;;;;2114321;28;20050;-42
2022/11/03 02:37:33;;;;;;;54.67;27.17;;;;;;;;;;2114368;28;20546;-43
2022/11/03 02:38:37;;;;;;;53.67;26.45;;;;;;;;;;2114375;28;20067;-42
2022/11/03 02:39:40;;;;;;;51.40;26.48;;;;;;;;;;2118156;28;20051;-42
2022/11/03 02:40:44;;;;;;;48.80;25.80;;;;;;;;;;2122829;27;20054;-42
2022/11/03 02:41:47;;;;;;;55.28;25.77;;;;;;;;;;2122782;28;20054;-43
2022/11/03 02:42:50;;;;;;;48.42;24.85;;;;;;;;;;2123157;28;20047;-43
2022/11/03 02:43:51;;;;;;;56.47;26.60;;;;;;;;;;2122808;28;20047;-42
2022/11/03 02:44:53;;;;;;;48.85;24.02;;;;;;;;;;2122953;28;20044;-42
2022/11/03 02:45:54;;;;;;;47.15;24.88;;;;;;;;;;2122753;27;20051;-43
2022/11/03 02:46:57;;;;;;;47.28;24.45;;;;;;;;;;2122966;28;20051;-43
2022/11/03 02:47:59;;;;;;;54.20;25.30;;;;;;;;;;2122829;28;20039;-42
2022/11/03 02:49:00;;;;;;;45.92;23.60;;;;;;;;;;2122549;28;20068;-43
2022/11/03 02:50:06;;;;;;;46.03;24.40;;;;;;;;;;2122683;28;20043;-44
2022/11/03 02:51:07;;;;;;;48.33;24.27;;;;;;;;;;2122829;27;20046;-44
2022/11/03 02:52:22;;;;;;;49.75;26.15;;;;;;;;;;2122700;28;20058;-43
2022/11/03 02:53:25;;;;;;;52.55;24.27;;;;;;;;;;2121400;28;20065;-43
2022/11/03 02:54:27;;;;;;;47.05;24.27;;;;;;;;;;2122294;28;20258;-42
2022/11/03 02:55:33;;;;;;;52.05;25.98;;;;;;;;;;2122240;28;20540;-44
2022/11/03 02:56:35;;;;;;;57.75;25.67;;;;;;;;;;2122308;28;20062;-44
2022/11/03 02:57:38;;;;;;;54.03;26.88;;;;;;;;;;2122727;28;20046;-44
2022/11/03 02:58:41;;;;;;;57.30;25.45;;;;;;;;;;2122433;28;20072;-43
2022/11/03 02:59:44;;;;;;;50.63;25.83;;;;;;;;;;2122184;28;20119;-42
2022/11/03 03:00:47;;;;;;;56.60;26.38;;;;;;;;;;2122454;27;20096;-43
2022/11/03 03:01:51;;;;;;;52.88;26.88;;;;;;;;;;2122532;28;20050;-44
2022/11/03 03:02:54;;;;;;;57.17;27.10;;;;;;;;;;2122733;28;20043;-44
2022/11/03 03:03:57;;;;;;;64.35;27.05;;;;;;;;;;2122598;28;20495;-44
2022/11/03 03:05:00;;;;;;;56.33;27.27;;;;;;;;;;2122609;28;20062;-42
2022/11/03 03:06:05;;;;;;;60.92;26.60;;;;;;;;;;2122388;27;20088;-44
2022/11/03 03:07:07;;;;;;;55.97;27.48;;;;;;;;;;2122746;28;20096;-43
2022/11/03 03:08:08;;;;;;;;;;;;;;;;;;2123153;28;20047;-44
2022/11/03 03:09:12;;;;;;;59.88;27.35;;;;;;;;;;2122640;28;19926;-42
2022/11/03 03:10:16;;;;;;;67.53;28.88;;;;;;;;;;2122607;28;20048;-43
2022/11/03 03:11:35;;;;;;;78.18;30.13;;;;;;;;;;2122534;27;20395;-43
2022/11/03 03:12:41;;;;;;;72.28;29.38;;;;;;;;;;2122669;28;20046;-43
2022/11/03 03:13:42;;;;;;;76.72;29.70;;;;;;;;;;2122670;28;20062;-42
2022/11/03 03:14:45;;;;;;;63.63;29.05;;;;;;;;;;2122492;28;20051;-42
2022/11/03 03:15:47;;;;;;;69.63;28.80;;;;;;;;;;2122495;27;20058;-44
2022/11/03 03:16:52;;;;;;;75.45;29.65;;;;;;;;;;2122504;27;20437;-42
2022/11/03 03:17:55;;;;;;;76.43;30.08;;;;;;;;;;2123591;28;20141;-42
2022/11/03 03:18:59;;;;;;;75.60;30.33;;;;;;;;;;2124079;28;20047;-42
2022/11/03 03:20:02;;;;;;;73.63;29.98;;;;;;;;;;2124043;28;20404;-43
2022/11/03 03:21:05;;;;;;;81.28;31.38;;;;;;;;;;2123993;27;20054;-44
2022/11/03 03:22:09;;;;;;;87.93;30.88;;;;;;;;;;2123920;28;20043;-44
2022/11/03 03:23:13;;;;;;;87.68;31.77;;;;;;;;;;2124155;28;20084;-42
2022/11/03 03:24:17;;;;;;;82.72;30.52;;;;;;;;;;2123985;28;20538;-42
2022/11/03 03:25:21;;;;;;;87.43;31.27;;;;;;;;;;2123955;28;20051;-42
2022/11/03 03:26:24;;;;;;;92.93;32.55;;;;;;;;;;2123919;27;20096;-45
2022/11/03 03:27:26;;;;;;;93.28;31.58;;;;;;;;;;2124250;28;20042;-43
2022/11/03 03:28:30;;;;;;;89.22;31.60;;;;;;;;;;2123858;28;20468;-44
2022/11/03 03:29:35;;;;;;;89.93;33.50;;;;;;;;;;2124042;28;20449;-42
2022/11/03 03:30:38;;;;;;;91.90;32.45;;;;;;;;;;2123870;27;20066;-43
2022/11/03 03:31:41;;;;;;;89.65;33.17;;;;;;;;;;2123948;28;20491;-44
2022/11/03 03:32:44;;;;;;;94.20;32.22;;;;;;;;;;2123881;28;20407;-43
2022/11/03 03:33:46;;;;;;;87.75;31.55;;;;;;;;;;2124125;28;20055;-42
2022/11/03 03:34:49;;;;;;;94.28;32.25;;;;;;;;;;2124012;28;20047;-43
2022/11/03 03:35:52;;;;;;;85.07;30.70;;;;;;;;;;2120302;28;20040;-42
2022/11/03 03:36:54;;;;;;;92.00;32.58;;;;;;;;;;2115525;28;20044;-45
2022/11/03 03:37:58;;;;;;;84.80;31.13;;;;;;;;;;2115613;28;20058;-45
2022/11/03 03:39:01;;;;;;;87.15;31.20;;;;;;;;;;2115561;28;20054;-42
2022/11/03 03:40:03;;;;;;;91.18;32.40;;;;;;;;;;2115372;28;20480;-42
2022/11/03 03:41:06;;;;;;;102.22;31.85;;;;;;;;;;2115502;28;20047;-42
2022/11/03 03:42:13;;;;;;;99.05;32.88;;;;;;;;;;2115386;28;20053;-44
2022/11/03 03:43:14;;;;;;;97.93;32.55;;;;;;;;;;2115496;28;20048;-46
2022/11/03 03:44:16;;;;;;;93.93;33.15;;;;;;;;;;2115351;28;20484;-45
2022/11/03 03:45:18;;;;;;;88.07;33.60;;;;;;;;;;2115361;28;20389;-42
2022/11/03 03:46:20;;;;;;;102.32;34.42;;;;;;;;;;2115253;28;20172;-45
2022/11/03 03:47:23;;;;;;;91.63;33.10;;;;;;;;;;2115475;28;20043;-46
2022/11/03 03:48:24;;;;;;;85.28;28.88;;;;;;;;;;2115366;28;20056;-45
2022/11/03 03:49:25;;;;;;;89.97;32.37;;;;;;;;;;2115426;28;20129;-46
2022/11/03 03:50:28;;;;;;;95.68;32.17;;;;;;;;;;2115351;28;20488;-43
2022/11/03 03:51:30;;;;;;;92.72;33.92;;;;;;;;;;2115377;28;20040;-43
2022/11/03 03:52:33;;;;;;;95.30;33.05;;;;;;;;;;2115188;28;20051;-45
2022/11/03 03:53:34;;;;;;;95.68;33.13;;;;;;;;;;2115221;28;20084;-43
2022/11/03 03:54:35;;;;;;;89.38;33.63;;;;;;;;;;2118132;28;20486;-46
2022/11/03 03:55:39;;;;;;;92.88;31.88;;;;;;;;;;2123732;28;20047;-43
2022/11/03 03:56:42;;;;;;;87.78;31.45;;;;;;;;;;2123809;28;20054;-46
2022/11/03 03:57:44;;;;;;;86.68;31.27;;;;;;;;;;2123872;28;20039;-45
2022/11/03 03:58:44;;;;;;;88.88;31.90;;;;;;;;;;2123883;28;20058;-47
2022/11/03 03:59:46;;;;;;;89.82;31.80;;;;;;;;;;2123759;28;20082;-43
2022/11/03 04:00:47;;;;;;;;;;;;;;;;;;2124225;28;20047;-42
2022/11/03 04:01:48;;;;;;;80.13;30.17;;;;;;;;;;2123744;28;19919;-46
2022/11/03 04:02:49;;;;;;;85.53;30.80;;;;;;;;;;2123879;28;20039;-46
2022/11/03 04:03:51;;;;;;;80.53;30.77;;;;;;;;;;2123769;28;20058;-45
2022/11/03 04:04:51;;;;;;;83.38;30.88;;;;;;;;;;2124000;28;20047;-43
2022/11/03 04:05:53;;;;;;;85.40;30.92;;;;;;;;;;2123593;27;20134;-47
2022/11/03 04:08:10;;;;;;;77.90;29.95;;;;;;;;;;2123065;28;20054;-43
2022/11/03 04:09:11;;;;;;;79.40;29.90;;;;;;;;;;2123727;28;20058;-43
2022/11/03 04:10:12;;;;;;;75.80;30.30;;;;;;;;;;2123912;28;20069;-47
2022/11/03 04:22:17;;;;;;;71.25;28.05;;;;;;;;;;2123652;28;20047;-47
2022/11/03 04:23:19;;;;;;;65.97;27.58;;;;;;;;;;2123670;28;20049;-44
2022/11/03 04:24:20;;;;;;;68.17;28.47;;;;;;;;;;2123664;28;20376;-44
2022/11/03 04:25:20;;;;;;;70.68;28.58;;;;;;;;;;2123716;28;20035;-44
2022/11/03 04:26:22;;;;;;;74.22;29.15;;;;;;;;;;2123659;27;20050;-46
2022/11/03 04:27:30;;;;;;;64.97;26.88;;;;;;;;;;2123511;28;20416;-49
2022/11/03 04:28:31;;;;;;;65.55;27.48;;;;;;;;;;2123153;27;20046;-46
2022/11/03 04:29:32;;;;;;;64.05;25.75;;;;;;;;;;2123599;28;20060;-48
2022/11/03 04:30:34;;;;;;;87.27;27.33;;;;;;;;;;2123511;27;20051;-44
2022/11/03 04:31:35;;;;;;;56.05;23.90;;;;;;;;;;2123754;28;20043;-47
2022/11/03 04:32:37;;;;;;;71.47;25.95;;;;;;;;;;2115612;28;20514;-46
2022/11/03 04:33:38;;;;;;;68.43;27.02;;;;;;;;;;2115241;28;20048;-44
2022/11/03 04:34:40;;;;;;;62.20;25.33;;;;;;;;;;2115020;28;20043;-44
2022/11/03 04:35:43;;;;;;;63.08;26.48;;;;;;;;;;2114931;28;20047;-46
2022/11/03 04:36:44;;;;;;;60.90;26.27;;;;;;;;;;2114984;28;20103;-43
2022/11/03 04:37:48;;;;;;;68.37;27.60;;;;;;;;;;2115035;28;20112;-44
2022/11/03 04:38:49;;;;;;;67.40;26.88;;;;;;;;;;2115177;28;20048;-46
2022/11/03 04:39:50;;;;;;;72.40;26.27;;;;;;;;;;2115194;28;20092;-44
2022/11/03 04:40:53;;;;;;;66.72;26.77;;;;;;;;;;2114969;28;20472;-45
2022/11/03 04:41:55;;;;;;;64.47;25.83;;;;;;;;;;2115127;28;20179;-43
2022/11/03 04:42:56;;;;;;;64.63;26.83;;;;;;;;;;2114966;28;20180;-46
2022/11/03 04:43:58;;;;;;;67.30;27.08;;;;;;;;;;2114999;28;20048;-46
2022/11/03 04:45:00;;;;;;;62.42;26.48;;;;;;;;;;2114936;28;20043;-43
2022/11/03 04:46:01;;;;;;;58.67;24.83;;;;;;;;;;2115048;28;20048;-47
2022/11/03 04:47:04;;;;;;;59.58;25.50;;;;;;;;;;2115044;28;20047;-46
2022/11/03 04:48:10;;;;;;;63.65;25.92;;;;;;;;;;2115068;28;20092;-43
2022/11/03 04:49:15;;;;;;;62.17;25.73;;;;;;;;;;2114999;28;20048;-42
2022/11/03 04:50:18;;;;;;;67.15;25.27;;;;;;;;;;2115027;28;20423;-46
2022/11/03 04:51:25;;;;;;;55.63;24.50;;;;;;;;;;2114936;28;20048;-47
2022/11/03 04:52:28;;;;;;;53.00;23.90;;;;;;;;;;2114965;28;20044;-46
2022/11/03 04:53:31;;;;;;;56.17;23.67;;;;;;;;;;2114989;28;20055;-47
2022/11/03 04:54:32;;;;;;;61.47;24.92;;;;;;;;;;2114864;28;20036;-47
2022/11/03 04:55:33;;;;;;;53.37;22.37;;;;;;;;;;2114929;28;20040;-44
2022/11/03 04:56:34;;;;;;;54.70;24.23;;;;;;;;;;2114910;28;20051;-43
2022/11/03 04:57:35;;;;;;;55.75;24.27;;;;;;;;;;2114913;28;20059;-46
2022/11/03 04:58:36;;;;;;;48.63;23.08;;;;;;;;;;2114859;28;20051;-46
2022/11/03 04:59:37;;;;;;;50.13;22.73;;;;;;;;;;2115047;28;20048;-43
2022/11/03 05:00:39;;;;;;;50.95;23.17;;;;;;;;;;2114823;28;20051;-43
2022/11/03 05:01:41;;;;;;;52.65;21.60;;;;;;;;;;2114857;28;20083;-47
2022/11/03 05:02:43;;;;;;;44.63;22.08;;;;;;;;;;2114821;28;20134;-46
2022/11/03 05:03:45;;;;;;;45.50;20.77;;;;;;;;;;2114971;28;20398;-47
2022/11/03 05:04:46;;;;;;;;;;;;;;;;;;2115403;28;20054;-46
2022/11/03 05:05:47;;;;;;;49.55;22.30;;;;;;;;;;2114793;28;19989;-48
2022/11/03 05:06:49;;;;;;;47.97;21.50;;;;;;;;;;2114880;28;20054;-44
2022/11/03 05:07:51;;;;;;;52.45;21.73;;;;;;;;;;2114710;28;20703;-44
2022/11/03 05:08:55;;;;;;;32.80;17.20;;;;;;;;;;2115071;28;20044;-47
2022/11/03 05:09:56;;;;;;;41.03;18.98;;;;;;;;;;2114769;28;20044;-44
2022/11/03 05:10:58;;;;;;;44.83;20.07;;;;;;;;;;2114788;28;20100;-47
2022/11/03 05:11:59;;;;;;;48.58;20.42;;;;;;;;;;2114814;28;20048;-47
2022/11/03 05:13:01;;;;;;;44.93;20.23;;;;;;;;;;2114797;28;20408;-46
2022/11/03 05:14:03;;;;;;;37.92;17.92;;;;;;;;;;2114769;28;20043;-44
2022/11/03 05:15:07;;;;;;;39.85;19.02;;;;;;;;;;2114941;28;20044;-47
2022/11/03 05:16:08;;;;;;;36.28;16.85;;;;;;;;;;2114713;28;20043;-45
2022/11/03 05:17:17;;;;;;;30.50;15.32;;;;;;;;;;2114849;28;20046;-44
2022/11/03 05:18:20;;;;;;;34.30;17.15;;;;;;;;;;2114844;28;20048;-47
2022/11/03 05:19:23;;;;;;;34.28;15.18;;;;;;;;;;2114867;28;20045;-47
2022/11/03 05:20:28;;;;;;;32.53;15.20;;;;;;;;;;2114732;28;20043;-47
2022/11/03 05:21:36;;;;;;;29.38;13.85;;;;;;;;;;2114957;28;20039;-45
2022/11/03 05:22:37;;;;;;;27.75;13.95;;;;;;;;;;2114844;28;20059;-47
2022/11/03 05:23:40;;;;;;;28.50;13.57;;;;;;;;;;2114775;28;20446;-48
2022/11/03 05:24:41;;;;;;;29.52;14.82;;;;;;;;;;2114639;28;20400;-45
2022/11/03 05:25:43;;;;;;;27.73;14.32;;;;;;;;;;2114629;28;20046;-48
2022/11/03 05:26:45;;;;;;;32.65;15.43;;;;;;;;;;2114791;28;20052;-44
2022/11/03 05:27:45;;;;;;;26.65;13.32;;;;;;;;;;2114685;28;20462;-47
2022/11/03 05:28:48;;;;;;;27.10;13.48;;;;;;;;;;2114620;28;20134;-47
2022/11/03 05:29:49;;;;;;;25.25;13.15;;;;;;;;;;2114755;28;20055;-47
2022/11/03 05:30:51;;;;;;;28.42;13.80;;;;;;;;;;2114629;28;20073;-43
2022/11/03 05:31:52;;;;;;;26.13;13.80;;;;;;;;;;2114779;28;20096;-47
2022/11/03 05:32:54;;;;;;;27.05;13.23;;;;;;;;;;2114753;28;20458;-44
2022/11/03 05:33:56;;;;;;;26.45;13.35;;;;;;;;;;2114796;28;20067;-47
2022/11/03 05:34:57;;;;;;;26.20;13.18;;;;;;;;;;2114764;28;20048;-49
2022/11/03 05:36:00;;;;;;;24.20;12.10;;;;;;;;;;2114658;28;20048;-47
2022/11/03 05:37:08;;;;;;;27.48;12.95;;;;;;;;;;2114577;28;20073;-47
2022/11/03 05:38:11;;;;;;;23.95;12.82;;;;;;;;;;2114788;28;20043;-47
2022/11/03 05:39:21;;;;;;;23.20;12.38;;;;;;;;;;2114712;28;20098;-44
2022/11/03 05:40:24;;;;;;;22.67;12.20;;;;;;;;;;2113640;28;20036;-44
2022/11/03 05:41:26;;;;;;;20.90;11.48;;;;;;;;;;2114569;28;20044;-44
2022/11/03 05:42:31;;;;;;;22.95;12.32;;;;;;;;;;2114535;28;20048;-44
2022/11/03 05:43:32;;;;;;;25.48;12.52;;;;;;;;;;2114538;28;20336;-47
2022/11/03 05:44:35;;;;;;;22.55;12.20;;;;;;;;;;2114476;28;20047;-47
2022/11/03 05:45:36;;;;;;;19.88;10.65;;;;;;;;;;2114653;28;20039;-47
2022/11/03 05:46:37;;;;;;;22.10;11.73;;;;;;;;;;2114723;28;20058;-44
2022/11/03 05:47:39;;;;;;;24.80;13.00;;;;;;;;;;2114683;28;20048;-44
2022/11/03 05:48:42;;;;;;;22.10;12.15;;;;;;;;;;2114675;28;20046;-47
2022/11/03 05:49:43;;;;;;;24.40;13.15;;;;;;;;;;2114550;28;20047;-44
2022/11/03 05:50:44;;;;;;;24.70;12.25;;;;;;;;;;2114505;28;20050;-44
2022/11/03 05:51:46;;;;;;;22.33;12.60;;;;;;;;;;2114767;28;20539;-47
2022/11/03 05:52:48;;;;;;;20.52;11.75;;;;;;;;;;2114508;28;20040;-43
2022/11/03 05:53:51;;;;;;;26.40;11.98;;;;;;;;;;2114696;28;20055;-47
2022/11/03 05:54:53;;;;;;;25.00;11.85;;;;;;;;;;2114572;28;20040;-45
2022/11/03 05:55:56;;;;;;;22.67;11.55;;;;;;;;;;2114481;28;20047;-47
2022/11/03 05:56:57;;;;;;;20.20;11.32;;;;;;;;;;2114633;28;20043;-47
2022/11/03 05:57:59;;;;;;;25.07;12.77;;;;;;;;;;2114553;28;20672;-44
2022/11/03 05:59:00;;;;;;;;;;;;;;;;;;2114954;28;20644;-43
2022/11/03 06:00:03;;;;;;;21.17;11.35;;;;;;;;;;2114631;28;20008;-47
2022/11/03 06:01:09;;;;;;;24.55;11.05;;;;;;;;;;2114508;28;20054;-44
2022/11/03 06:02:21;;;;;;;19.38;11.18;;;;;;;;;;2114663;28;20043;-46
2022/11/03 06:03:23;;;;;;;22.77;11.35;;;;;;;;;;2114553;28;20048;-44
2022/11/03 06:04:27;;;;;;;22.15;11.05;;;;;;;;;;2114591;28;20101;-47
2022/11/03 06:05:30;;;;;;;22.20;12.43;;;;;;;;;;2114339;28;20044;-48
2022/11/03 06:06:33;;;;;;;19.65;11.55;;;;;;;;;;2114309;28;20046;-44
2022/11/03 06:07:34;;;;;;;21.58;11.55;;;;;;;;;;2114457;28;20500;-43
2022/11/03 06:08:35;;;;;;;23.17;11.77;;;;;;;;;;2114399;28;20120;-47
2022/11/03 06:09:42;;;;;;;21.02;10.95;;;;;;;;;;2114523;28;20048;-46
2022/11/03 06:10:45;;;;;;;21.13;11.68;;;;;;;;;;2114379;28;20055;-42
2022/11/03 06:11:46;;;;;;;21.55;11.23;;;;;;;;;;2114419;28;20454;-43
2022/11/03 06:12:47;;;;;;;21.90;10.73;;;;;;;;;;2114480;28;20043;-47
2022/11/03 06:13:49;;;;;;;18.45;10.50;;;;;;;;;;2114405;28;20791;-45
2022/11/03 06:14:50;;;;;;;22.38;12.35;;;;;;;;;;2114384;28;20442;-44
2022/11/03 14:46:02;;;;;;;5.17;4.23;;;;;;;;;;4259485;27;20324;-41
2022/11/03 14:47:04;;;;;;;4.57;3.75;;;;;;;;;;2129866;27;20046;-41
2022/11/03 14:48:05;;;;;;;5.82;4.22;;;;;;;;;;2130089;27;20047;-41
2022/11/03 14:49:07;;;;;;;4.70;4.20;;;;;;;;;;2129985;27;20054;-41
2022/11/03 14:50:09;;;;;;;5.47;3.92;;;;;;;;;;2129893;27;20100;-41
2022/11/03 14:51:10;;;;;;;6.50;3.40;;;;;;;;;;2130010;27;20051;-41
2022/11/03 14:52:11;;;;;;;6.10;3.70;;;;;;;;;;2129899;27;20047;-41
2022/11/03 14:53:12;;;;;;;5.47;3.90;;;;;;;;;;2129789;27;20051;-42
2022/11/03 14:54:16;;;;;;;4.63;3.50;;;;;;;;;;2129875;27;20047;-43
2022/11/03 14:55:17;;;;;;;5.32;4.22;;;;;;;;;;2129945;27;20458;-42